createdAt,value
2022-11-16T00:01:58.032Z,68.70
2022-11-16T00:04:25.459Z,68.84
2022-11-16T00:06:52.627Z,68.24
2022-11-16T00:09:22.651Z,68.54
2022-11-16T00:11:52.022Z,68.14
2022-11-16T00:14:20.588Z,68.72
2022-11-16T00:16:47.743Z,67.79
2022-11-16T00:19:14.903Z,68.21
2022-11-16T00:21:42.466Z,68.34
2022-11-16T00:24:13.607Z,68.60
2022-11-16T00:26:41.480Z,68.07
2022-11-16T00:29:15.239Z,68.06
2022-11-16T00:31:42.991Z,67.94
2022-11-16T00:34:10.206Z,68.12
2022-11-16T00:36:37.501Z,67.85
2022-11-16T00:39:04.665Z,67.42
2022-11-16T00:41:31.891Z,68.11
2022-11-16T00:43:58.996Z,67.56
2022-11-16T00:46:26.174Z,67.88
2022-11-16T00:48:53.432Z,67.53
2022-11-16T00:51:20.960Z,68.01
2022-11-16T00:53:48.216Z,67.22
2022-11-16T00:56:15.528Z,67.64
2022-11-16T00:58:44.340Z,67.52
2022-11-16T01:01:12.731Z,67.50
2022-11-16T01:03:40.511Z,67.44
2022-11-16T01:06:11.250Z,67.54
2022-11-16T01:08:40.038Z,66.96
2022-11-16T01:11:27.023Z,67.32
2022-11-16T01:13:55.147Z,66.71
2022-11-16T01:16:23.492Z,66.66
2022-11-16T01:18:53.266Z,67.16
2022-11-16T01:21:21.475Z,66.90
2022-11-16T01:23:48.911Z,67.02
2022-11-16T01:26:16.016Z,67.36
2022-11-16T01:28:43.403Z,67.06
2022-11-16T01:31:11.836Z,67.24
2022-11-16T01:33:39.839Z,67.30
2022-11-16T01:36:14.947Z,67.42
2022-11-16T01:38:47.503Z,67.36
2022-11-16T01:41:20.969Z,67.20
2022-11-16T01:43:54.212Z,67.83
2022-11-16T01:46:24.331Z,67.14
2022-11-16T01:49:14.658Z,67.40
2022-11-16T01:51:57.454Z,67.13
2022-11-16T01:54:27.643Z,66.59
2022-11-16T01:57:00.857Z,67.33
2022-11-16T01:59:41.317Z,67.02
2022-11-16T02:02:15.030Z,66.75
2022-11-16T02:04:43.840Z,67.37
2022-11-16T02:08:04.554Z,66.47
2022-11-16T02:10:50.314Z,66.02
2022-11-16T02:13:32.595Z,65.75
2022-11-16T02:16:18.490Z,65.90
2022-11-16T02:19:10.938Z,65.08
2022-11-16T02:21:46.756Z,65.86
2022-11-16T02:24:32.788Z,65.84
2022-11-16T02:27:28.670Z,64.97
2022-11-16T02:29:57.041Z,65.28
2022-11-16T02:32:31.777Z,64.51
2022-11-16T02:35:13.671Z,64.47
2022-11-16T02:37:51.508Z,65.25
2022-11-16T02:40:22.462Z,64.98
2022-11-16T02:42:58.275Z,65.39
2022-11-16T02:45:30.044Z,65.27
2022-11-16T02:48:03.306Z,64.96
2022-11-16T02:50:33.000Z,64.89
2022-11-16T02:53:00.060Z,64.53
2022-11-16T02:55:34.369Z,65.28
2022-11-16T02:58:05.042Z,64.73
2022-11-16T03:00:48.667Z,64.50
2022-11-16T03:03:39.551Z,65.87
2022-11-16T03:06:28.967Z,65.51
2022-11-16T03:09:02.920Z,64.74
2022-11-16T03:11:53.595Z,65.25
2022-11-16T03:14:23.713Z,65.37
2022-11-16T03:16:57.644Z,65.34
2022-11-16T03:19:36.702Z,65.71
2022-11-16T03:22:21.017Z,66.07
2022-11-16T03:24:49.601Z,65.96
2022-11-16T03:27:54.035Z,66.59
2022-11-16T03:30:24.282Z,65.68
2022-11-16T03:33:01.201Z,65.74
2022-11-16T03:36:20.008Z,65.56
2022-11-16T03:38:50.942Z,65.13
2022-11-16T03:41:22.454Z,65.59
2022-11-16T03:43:50.647Z,65.35
2022-11-16T03:46:19.175Z,66.05
2022-11-16T03:48:46.485Z,66.00
2022-11-16T03:51:21.907Z,65.97
2022-11-16T03:53:48.911Z,65.76
2022-11-16T03:56:15.913Z,66.17
2022-11-16T03:58:42.940Z,66.04
2022-11-16T04:01:10.147Z,65.73
2022-11-16T04:03:38.016Z,66.17
2022-11-16T04:06:24.103Z,66.13
2022-11-16T04:09:09.909Z,65.67
2022-11-16T04:11:57.393Z,66.02
2022-11-16T04:14:44.986Z,66.06
2022-11-16T04:17:35.880Z,65.59
2022-11-16T04:20:23.903Z,65.52
2022-11-16T04:23:13.245Z,65.39
2022-11-16T04:25:42.018Z,65.64
2022-11-16T04:28:17.597Z,65.64
2022-11-16T04:31:10.461Z,65.92
2022-11-16T04:33:58.849Z,66.21
2022-11-16T04:36:45.218Z,66.00
2022-11-16T04:39:12.742Z,66.16
2022-11-16T04:41:58.476Z,66.27
2022-11-16T04:44:48.872Z,66.09
2022-11-16T04:47:16.670Z,66.35
2022-11-16T04:49:43.845Z,67.24
2022-11-16T04:52:12.026Z,67.70
2022-11-16T04:54:40.000Z,67.61
2022-11-16T04:57:08.385Z,67.61
2022-11-16T04:59:35.562Z,67.22
2022-11-16T05:02:09.358Z,67.34
2022-11-16T05:04:48.081Z,67.62
2022-11-16T05:07:15.815Z,67.54
2022-11-16T05:09:47.069Z,67.29
2022-11-16T05:12:24.352Z,68.17
2022-11-16T05:14:55.984Z,67.61
2022-11-16T05:17:27.381Z,67.42
2022-11-16T05:20:15.318Z,66.84
2022-11-16T05:22:56.410Z,67.42
2022-11-16T05:25:26.205Z,66.74
2022-11-16T05:27:54.782Z,67.43
2022-11-16T05:30:22.037Z,67.59
2022-11-16T05:32:49.372Z,67.18
2022-11-16T05:35:19.450Z,66.27
2022-11-16T05:37:47.153Z,66.23
2022-11-16T05:40:14.305Z,66.27
2022-11-16T05:42:52.001Z,66.30
2022-11-16T05:45:21.348Z,65.86
2022-11-16T05:47:49.635Z,66.13
2022-11-16T05:50:17.630Z,66.57
2022-11-16T05:52:59.663Z,66.32
2022-11-16T05:55:26.867Z,66.33
2022-11-16T05:57:54.814Z,65.82
2022-11-16T06:00:22.690Z,66.08
2022-11-16T06:02:52.661Z,66.10
2022-11-16T06:05:24.394Z,66.08
2022-11-16T06:07:51.791Z,66.28
2022-11-16T06:10:19.078Z,66.37
2022-11-16T06:12:49.109Z,66.30
2022-11-16T06:15:17.256Z,66.38
2022-11-16T06:17:44.692Z,66.33
2022-11-16T06:20:12.941Z,66.68
2022-11-16T06:22:40.771Z,66.46
2022-11-16T06:25:08.838Z,66.35
2022-11-16T06:27:41.679Z,66.20
2022-11-16T06:30:10.700Z,66.70
2022-11-16T06:32:40.162Z,66.73
2022-11-16T06:35:08.536Z,66.77
2022-11-16T06:37:36.961Z,66.09
2022-11-16T06:40:04.345Z,66.02
2022-11-16T06:42:35.799Z,66.13
2022-11-16T06:45:03.717Z,65.68
2022-11-16T06:47:36.455Z,65.03
2022-11-16T06:50:04.421Z,65.50
2022-11-16T06:52:31.966Z,65.13
2022-11-16T06:54:59.198Z,65.47
2022-11-16T06:57:31.104Z,65.67
2022-11-16T06:59:58.162Z,65.31
2022-11-16T07:02:25.163Z,65.31
2022-11-16T07:04:52.121Z,65.05
2022-11-16T07:07:19.132Z,64.73
2022-11-16T07:09:46.329Z,64.57
2022-11-16T07:12:14.928Z,65.33
2022-11-16T07:14:42.575Z,64.22
2022-11-16T07:17:11.508Z,63.38
2022-11-16T07:19:40.233Z,63.89
2022-11-16T07:22:07.757Z,63.79
2022-11-16T07:24:34.952Z,63.79
2022-11-16T07:27:02.819Z,63.80
2022-11-16T07:29:35.016Z,63.23
2022-11-16T07:32:32.133Z,63.21
2022-11-16T07:35:09.044Z,63.20
2022-11-16T07:37:38.001Z,63.70
2022-11-16T07:40:06.672Z,63.68
2022-11-16T07:42:33.738Z,63.21
2022-11-16T07:45:07.731Z,63.29
2022-11-16T07:47:39.862Z,62.34
2022-11-16T07:50:11.257Z,62.30
2022-11-16T07:52:38.610Z,61.80
2022-11-16T07:55:15.875Z,62.47
2022-11-16T07:57:47.952Z,62.28
2022-11-16T08:00:19.321Z,62.28
2022-11-16T08:02:56.392Z,61.28
2022-11-16T08:05:23.557Z,60.96
2022-11-16T08:07:51.769Z,61.94
2022-11-16T08:10:23.442Z,61.55
2022-11-16T08:12:50.729Z,61.22
2022-11-16T08:15:19.817Z,61.26
2022-11-16T08:17:47.162Z,61.35
2022-11-16T08:20:14.551Z,61.27
2022-11-16T08:22:43.216Z,60.70
2022-11-16T08:25:11.772Z,60.94
2022-11-16T08:27:41.881Z,63.15
2022-11-16T08:30:09.966Z,62.17
2022-11-16T08:32:41.498Z,55.22
2022-11-16T08:35:09.581Z,55.47
2022-11-16T08:37:36.604Z,52.54
2022-11-16T08:40:03.885Z,51.22
2022-11-16T08:42:39.394Z,50.81
2022-11-16T08:45:10.207Z,49.15
2022-11-16T08:47:37.444Z,49.84
2022-11-16T08:50:07.013Z,48.56
2022-11-16T08:52:34.125Z,47.26
2022-11-16T08:55:02.455Z,47.98
2022-11-16T08:57:30.988Z,46.21
2022-11-16T09:00:00.605Z,47.33
2022-11-16T09:02:27.621Z,46.77
2022-11-16T09:04:54.759Z,47.72
2022-11-16T09:07:22.024Z,48.23
2022-11-16T09:09:48.976Z,48.57
2022-11-16T09:12:17.834Z,48.63
2022-11-16T09:14:44.718Z,49.01
2022-11-16T09:17:11.843Z,50.35
2022-11-16T09:19:38.839Z,49.90
2022-11-16T09:22:06.089Z,49.95
2022-11-16T09:24:33.135Z,49.76
2022-11-16T09:27:01.604Z,50.35
2022-11-16T09:29:31.760Z,50.43
2022-11-16T09:31:58.867Z,50.78
2022-11-16T09:34:26.205Z,51.03
2022-11-16T09:36:53.279Z,50.90
2022-11-16T09:39:30.973Z,51.03
2022-11-16T09:42:16.666Z,51.26
2022-11-16T09:45:23.468Z,49.70
2022-11-16T09:48:03.951Z,50.16
2022-11-16T09:50:47.630Z,47.24
2022-11-16T09:53:28.812Z,45.57
2022-11-16T09:56:17.849Z,44.51
2022-11-16T09:59:04.264Z,43.61
2022-11-16T10:01:55.728Z,45.16
2022-11-16T10:04:47.644Z,45.62
2022-11-16T10:07:18.215Z,44.78
2022-11-16T10:09:46.773Z,45.52
2022-11-16T10:12:31.860Z,44.91
2022-11-16T10:15:18.006Z,46.56
2022-11-16T10:18:03.243Z,46.83
2022-11-16T10:20:58.158Z,47.12
2022-11-16T10:23:43.911Z,47.27
2022-11-16T10:26:38.828Z,46.21
2022-11-16T10:29:13.607Z,46.92
2022-11-16T10:31:57.164Z,43.23
2022-11-16T10:34:34.041Z,44.23
2022-11-16T10:37:07.845Z,44.63
2022-11-16T10:39:36.782Z,44.86
2022-11-16T10:42:11.351Z,46.24
2022-11-16T10:44:46.723Z,45.76
2022-11-16T10:47:22.977Z,46.14
2022-11-16T10:50:17.233Z,44.67
2022-11-16T10:52:44.267Z,47.42
2022-11-16T10:55:17.932Z,47.21
2022-11-16T10:57:57.376Z,47.03
2022-11-16T11:00:51.911Z,47.22
2022-11-16T11:03:32.740Z,46.95
2022-11-16T11:06:00.260Z,47.88
2022-11-16T11:08:31.294Z,47.93
2022-11-16T11:11:25.235Z,48.23
2022-11-16T11:14:15.837Z,48.25
2022-11-16T11:16:43.074Z,48.54
2022-11-16T11:19:29.912Z,48.44
2022-11-16T11:22:01.165Z,48.40
2022-11-16T11:24:43.875Z,48.47
2022-11-16T11:27:12.590Z,48.75
2022-11-16T11:29:43.294Z,48.82
2022-11-16T11:32:20.984Z,48.47
2022-11-16T11:34:56.425Z,48.72
2022-11-16T11:37:37.445Z,48.97
2022-11-16T11:40:28.814Z,48.56
2022-11-16T11:42:59.950Z,49.26
2022-11-16T11:45:51.548Z,49.58
2022-11-16T11:48:25.647Z,50.14
2022-11-16T11:51:21.393Z,49.88
2022-11-16T11:53:59.255Z,50.24
2022-11-16T11:56:30.819Z,49.68
2022-11-16T11:58:58.213Z,49.80
2022-11-16T12:01:58.506Z,49.42
2022-11-16T12:04:53.268Z,50.57
2022-11-16T12:07:27.758Z,50.54
2022-11-16T12:09:54.780Z,50.41
2022-11-16T12:12:40.680Z,49.91
2022-11-16T12:15:21.863Z,50.25
2022-11-16T12:18:12.290Z,50.65
2022-11-16T12:21:04.050Z,51.23
2022-11-16T12:23:49.225Z,50.36
2022-11-16T12:26:48.561Z,50.38
2022-11-16T12:29:25.177Z,51.03
2022-11-16T12:32:07.819Z,50.44
2022-11-16T12:34:46.628Z,51.14
2022-11-16T12:37:44.079Z,52.66
2022-11-16T12:40:29.336Z,51.41
2022-11-16T12:43:16.942Z,51.32
2022-11-16T12:45:53.916Z,51.09
2022-11-16T12:48:51.199Z,51.48
2022-11-16T12:51:21.247Z,51.57
2022-11-16T12:53:51.049Z,51.94
2022-11-16T12:56:41.463Z,50.84
2022-11-16T12:59:31.435Z,51.36
2022-11-16T13:02:08.713Z,51.23
2022-11-16T13:04:41.253Z,51.21
2022-11-16T13:07:23.459Z,51.95
2022-11-16T13:09:59.110Z,51.66
2022-11-16T13:12:28.447Z,52.22
2022-11-16T13:14:57.782Z,52.62
2022-11-16T13:17:33.394Z,52.07
2022-11-16T13:20:15.552Z,52.28
2022-11-16T13:22:53.475Z,52.18
2022-11-16T13:25:51.049Z,53.17
2022-11-16T13:28:37.010Z,52.08
2022-11-16T13:31:20.940Z,52.50
2022-11-16T13:33:52.966Z,53.04
2022-11-16T13:36:45.507Z,52.70
2022-11-16T13:39:21.981Z,52.73
2022-11-16T13:42:06.400Z,52.76
2022-11-16T13:44:34.886Z,52.90
2022-11-16T13:47:18.143Z,53.49
2022-11-16T13:50:19.272Z,53.67
2022-11-16T13:55:48.628Z,53.62
2022-11-16T13:58:22.048Z,53.41
2022-11-16T14:01:19.233Z,53.46
2022-11-16T14:03:49.268Z,52.44
2022-11-16T14:06:19.293Z,52.16
2022-11-16T14:08:57.120Z,52.87
2022-11-16T14:11:33.999Z,52.04
2022-11-16T14:14:06.231Z,52.47
2022-11-16T14:16:50.971Z,53.73
2022-11-16T14:19:47.688Z,53.17
2022-11-16T14:22:40.639Z,53.43
2022-11-16T14:25:13.983Z,53.34
2022-11-16T14:28:03.713Z,53.55
2022-11-16T14:31:03.651Z,53.51
2022-11-16T14:33:34.312Z,53.74
2022-11-16T14:36:06.265Z,54.25
2022-11-16T14:38:37.536Z,53.77
2022-11-16T14:41:11.460Z,53.69
2022-11-16T14:43:59.395Z,54.43
2022-11-16T14:46:35.790Z,54.33
2022-11-16T14:49:03.527Z,54.52
2022-11-16T14:51:42.589Z,54.50
2022-11-16T14:54:33.952Z,54.46
2022-11-16T14:57:03.490Z,54.81
2022-11-16T14:59:31.502Z,54.65
2022-11-16T15:02:03.970Z,55.08
2022-11-16T15:04:31.817Z,55.34
2022-11-16T15:07:02.884Z,55.59
2022-11-16T15:09:35.119Z,54.83
2022-11-16T15:12:24.135Z,54.87
2022-11-16T15:14:54.905Z,55.68
2022-11-16T15:17:30.167Z,55.08
2022-11-16T15:20:21.276Z,55.87
2022-11-16T15:22:52.044Z,55.11
2022-11-16T15:25:24.373Z,55.78
2022-11-16T15:27:51.893Z,56.22
2022-11-16T15:30:22.369Z,56.08
2022-11-16T15:32:51.250Z,55.71
2022-11-16T15:35:32.623Z,56.24
2022-11-16T15:38:06.855Z,56.58
2022-11-16T15:40:35.209Z,56.56
2022-11-16T15:43:05.291Z,56.66
2022-11-16T15:45:33.515Z,56.49
2022-11-16T15:48:02.964Z,57.50
2022-11-16T15:50:30.275Z,57.25
2022-11-16T15:52:59.730Z,56.87
2022-11-16T15:55:40.665Z,57.53
2022-11-16T15:58:15.368Z,57.24
2022-11-16T16:00:47.109Z,57.30
2022-11-16T16:03:24.769Z,58.27
2022-11-16T16:05:54.597Z,58.11
2022-11-16T16:08:26.026Z,58.33
2022-11-16T16:11:16.602Z,58.48
2022-11-16T16:13:56.163Z,58.17
2022-11-16T16:16:36.975Z,58.16
2022-11-16T16:19:29.508Z,58.04
2022-11-16T16:21:58.793Z,58.14
2022-11-16T16:24:46.478Z,58.25
2022-11-16T16:27:16.023Z,58.48
2022-11-16T16:29:44.298Z,58.84
2022-11-16T16:32:35.858Z,58.46
2022-11-16T16:35:08.967Z,58.46
2022-11-16T16:37:37.062Z,58.67
2022-11-16T16:40:04.957Z,59.05
2022-11-16T16:42:34.852Z,58.98
2022-11-16T16:45:02.457Z,59.44
2022-11-16T16:47:31.756Z,58.76
2022-11-16T16:49:59.031Z,58.52
2022-11-16T16:52:27.794Z,58.91
2022-11-16T16:54:54.756Z,58.78
2022-11-16T16:57:23.037Z,58.70
2022-11-16T16:59:50.151Z,59.42
2022-11-16T17:02:17.485Z,59.08
2022-11-16T17:04:46.931Z,58.96
2022-11-16T17:07:15.653Z,59.09
2022-11-16T17:09:42.957Z,58.82
2022-11-16T17:12:11.559Z,59.59
2022-11-16T17:14:38.653Z,59.32
2022-11-16T17:17:05.657Z,59.64
2022-11-16T17:19:32.950Z,59.00
2022-11-16T17:22:00.194Z,58.95
2022-11-16T17:24:27.354Z,58.55
2022-11-16T17:26:56.047Z,58.65
2022-11-16T17:29:23.174Z,58.58
2022-11-16T17:31:50.402Z,58.60
2022-11-16T17:34:17.787Z,58.27
2022-11-16T17:36:45.337Z,58.56
2022-11-16T17:39:12.574Z,58.61
2022-11-16T17:41:39.652Z,58.45
2022-11-16T17:44:06.956Z,58.47
2022-11-16T17:46:34.171Z,58.82
2022-11-16T17:49:01.412Z,58.66
2022-11-16T17:51:30.019Z,58.55
2022-11-16T17:53:58.583Z,58.68
2022-11-16T17:56:27.731Z,58.89
2022-11-16T17:58:55.804Z,58.75
2022-11-16T18:01:23.154Z,58.63
2022-11-16T18:03:50.519Z,58.29
2022-11-16T18:06:19.784Z,58.83
2022-11-16T18:08:47.985Z,58.68
2022-11-16T18:11:18.341Z,58.93
2022-11-16T18:13:46.099Z,58.15
2022-11-16T18:16:16.471Z,59.03
2022-11-16T18:18:45.012Z,58.90
2022-11-16T18:21:19.891Z,59.75
2022-11-16T18:23:48.298Z,59.29
2022-11-16T18:26:20.661Z,59.17
2022-11-16T18:28:50.476Z,59.26
2022-11-16T18:31:20.055Z,59.26
2022-11-16T18:33:49.335Z,58.97
2022-11-16T18:36:18.058Z,59.31
2022-11-16T18:38:45.651Z,59.37
2022-11-16T18:41:13.031Z,59.21
2022-11-16T18:43:56.284Z,59.21
2022-11-16T18:46:32.721Z,59.34
2022-11-16T18:49:00.755Z,59.33
2022-11-16T18:51:28.947Z,59.56
2022-11-16T18:53:56.966Z,59.35
2022-11-16T18:56:25.141Z,58.59
2022-11-16T18:58:53.215Z,59.48
2022-11-16T19:01:23.971Z,59.69
2022-11-16T19:03:52.463Z,59.45
2022-11-16T19:06:19.652Z,59.33
2022-11-16T19:08:54.070Z,59.66
2022-11-16T19:11:24.276Z,59.26
2022-11-16T19:14:07.782Z,59.97
2022-11-16T19:16:35.385Z,59.75
2022-11-16T19:19:03.007Z,59.32
2022-11-16T19:21:30.555Z,59.85
2022-11-16T19:23:58.575Z,59.76
2022-11-16T19:26:27.534Z,59.80
2022-11-16T19:28:57.221Z,59.17
2022-11-16T19:31:29.444Z,59.61
2022-11-16T19:34:00.879Z,59.64
2022-11-16T19:36:29.987Z,58.98
2022-11-16T19:38:57.948Z,59.19
2022-11-16T19:41:29.669Z,59.35
2022-11-16T19:44:00.012Z,59.77
2022-11-16T19:46:32.459Z,59.90
2022-11-16T19:49:00.624Z,59.50
2022-11-16T19:51:31.033Z,60.12
2022-11-16T19:54:02.617Z,59.69
2022-11-16T19:56:30.472Z,59.42
2022-11-16T19:58:58.177Z,59.56
2022-11-16T20:01:29.585Z,59.84
2022-11-16T20:04:02.628Z,59.78
2022-11-16T20:06:34.485Z,59.44
2022-11-16T20:09:08.984Z,59.90
2022-11-16T20:11:38.385Z,59.85
2022-11-16T20:14:09.392Z,59.76
2022-11-16T20:16:39.765Z,59.72
2022-11-16T20:19:08.993Z,59.96
2022-11-16T20:21:38.853Z,60.01
2022-11-16T20:24:08.798Z,59.79
2022-11-16T20:26:37.298Z,60.37
2022-11-16T20:29:08.319Z,60.36
2022-11-16T20:31:35.483Z,59.86
2022-11-16T20:34:05.358Z,59.94
2022-11-16T20:36:33.933Z,60.21
2022-11-16T20:39:01.167Z,60.33
2022-11-16T20:41:30.457Z,60.80
2022-11-16T20:43:59.390Z,60.97
2022-11-16T20:46:32.882Z,60.84
2022-11-16T20:49:01.980Z,60.75
2022-11-16T20:51:29.801Z,60.79
2022-11-16T20:53:57.909Z,60.61
2022-11-16T20:56:25.173Z,60.71
2022-11-16T20:58:52.361Z,61.12
2022-11-16T21:01:28.971Z,60.75
2022-11-16T21:32:21.866Z,61.67
2022-11-16T21:34:51.704Z,61.51
2022-11-16T21:37:19.245Z,61.77
2022-11-16T21:39:46.233Z,61.47
2022-11-16T21:42:13.289Z,61.54
2022-11-16T21:44:43.216Z,61.76
2022-11-16T21:47:11.335Z,61.86
2022-11-16T21:49:53.084Z,61.55
2022-11-16T21:52:25.626Z,61.14
2022-11-16T21:54:59.358Z,61.87
2022-11-16T21:57:26.292Z,61.95
2022-11-16T21:59:53.146Z,61.86
2022-11-16T22:02:20.038Z,62.39
2022-11-16T22:05:05.657Z,62.06
2022-11-16T22:07:38.630Z,61.82
2022-11-16T22:10:08.801Z,61.52
2022-11-16T22:12:36.270Z,62.25
2022-11-16T22:15:05.311Z,61.54
2022-11-16T22:17:32.905Z,61.48
2022-11-16T22:19:59.861Z,62.10
2022-11-16T22:22:26.803Z,61.63
2022-11-16T22:24:53.739Z,61.01
2022-11-16T22:27:20.659Z,61.88
2022-11-16T22:29:47.607Z,61.55
2022-11-16T22:32:14.483Z,61.09
2022-11-16T22:34:41.441Z,61.83
2022-11-16T22:37:08.335Z,61.71
2022-11-16T22:39:36.644Z,61.40
2022-11-16T22:42:04.244Z,61.20
2022-11-16T22:44:31.318Z,61.45
2022-11-16T22:46:58.216Z,62.21
2022-11-16T22:49:25.167Z,62.21
2022-11-16T22:51:52.147Z,62.02
2022-11-16T22:54:20.042Z,62.09
2022-11-16T22:56:49.217Z,62.04
2022-11-16T22:59:16.158Z,61.84
2022-11-16T23:01:43.025Z,62.80
2022-11-16T23:04:09.991Z,62.25
2022-11-16T23:06:36.890Z,62.03
2022-11-16T23:09:03.947Z,62.19
2022-11-16T23:11:49.712Z,62.46
2022-11-16T23:14:36.331Z,61.79
2022-11-16T23:17:03.952Z,62.43
2022-11-16T23:19:49.385Z,62.89
2022-11-16T23:22:39.497Z,62.87
2022-11-16T23:25:27.235Z,62.24
2022-11-16T23:27:56.861Z,62.69
2022-11-16T23:30:24.650Z,61.96
2022-11-16T23:32:52.057Z,62.11
2022-11-16T23:35:19.613Z,62.50
2022-11-16T23:37:56.831Z,62.91
2022-11-16T23:40:29.062Z,63.10
2022-11-16T23:43:14.393Z,62.91
2022-11-16T23:45:42.898Z,62.91
2022-11-16T23:48:11.765Z,62.41
2022-11-16T23:50:38.947Z,61.94
2022-11-16T23:53:07.610Z,62.16
2022-11-16T23:55:36.284Z,61.82
2022-11-16T23:58:03.142Z,61.66
